createdAt,value
2018-04-13T00:00:20.838Z,5.90
2018-04-13T00:02:49.436Z,6.00
2018-04-13T00:05:23.685Z,6.00
2018-04-13T00:07:57.528Z,5.90
2018-04-13T00:10:25.969Z,6.00
2018-04-13T00:12:54.383Z,5.90
2018-04-13T00:15:23.658Z,5.90
2018-04-13T00:17:52.153Z,5.90
2018-04-13T00:20:21.378Z,5.80
2018-04-13T00:22:49.950Z,5.80
2018-04-13T00:25:19.157Z,5.80
2018-04-13T00:27:48.462Z,5.90
2018-04-13T00:30:23.988Z,5.80
2018-04-13T00:32:52.849Z,5.80
2018-04-13T00:35:22.010Z,5.80
2018-04-13T00:38:09.367Z,5.80
2018-04-13T00:40:38.733Z,5.80
2018-04-13T00:43:07.467Z,5.80
2018-04-13T00:45:36.410Z,5.80
2018-04-13T00:48:04.813Z,5.80
2018-04-13T00:50:34.105Z,5.80
2018-04-13T00:53:19.594Z,5.70
2018-04-13T00:55:52.154Z,5.80
2018-04-13T00:58:20.565Z,5.70
2018-04-13T01:00:48.985Z,5.80
2018-04-13T01:03:17.436Z,5.80
2018-04-13T01:05:45.903Z,5.80
2018-04-13T01:08:14.502Z,5.80
2018-04-13T01:10:42.946Z,5.90
2018-04-13T01:13:11.415Z,5.90
2018-04-13T01:15:39.837Z,5.80
2018-04-13T01:18:14.270Z,5.80
2018-04-13T01:20:44.298Z,5.80
2018-04-13T01:23:14.073Z,5.80
2018-04-13T01:25:42.667Z,5.80
2018-04-13T01:28:11.176Z,5.80
2018-04-13T01:30:40.486Z,5.80
2018-04-13T01:33:09.730Z,5.80
2018-04-13T01:35:38.173Z,5.80
2018-04-13T01:38:07.447Z,5.90
2018-04-13T01:40:35.971Z,5.90
2018-04-13T01:43:05.976Z,5.90
2018-04-13T01:45:47.920Z,5.90
2018-04-13T01:48:16.356Z,5.90
2018-04-13T01:50:44.951Z,6.00
2018-04-13T01:53:13.574Z,5.90
2018-04-13T01:55:42.129Z,5.90
2018-04-13T01:58:10.640Z,5.90
2018-04-13T02:00:39.145Z,6.00
2018-04-13T02:03:13.186Z,6.00
2018-04-13T02:05:41.825Z,6.00
2018-04-13T02:08:11.165Z,6.00
2018-04-13T02:10:39.766Z,6.00
2018-04-13T02:13:08.200Z,6.00
2018-04-13T02:15:36.835Z,6.00
2018-04-13T02:18:06.358Z,6.00
2018-04-13T02:20:34.894Z,6.00
2018-04-13T02:23:03.301Z,6.00
2018-04-13T02:25:31.726Z,6.10
2018-04-13T02:28:06.459Z,6.00
2018-04-13T02:30:34.879Z,6.00
2018-04-13T02:33:03.325Z,6.00
2018-04-13T02:35:31.909Z,6.00
2018-04-13T02:38:00.304Z,6.00
2018-04-13T02:40:29.427Z,6.00
2018-04-13T02:42:58.610Z,6.10
2018-04-13T02:45:27.785Z,6.10
2018-04-13T02:47:59.538Z,6.10
2018-04-13T02:50:34.278Z,6.10
2018-04-13T02:53:04.059Z,6.00
2018-04-13T02:55:32.458Z,6.10
2018-04-13T02:58:01.070Z,6.10
2018-04-13T03:00:30.313Z,6.10
2018-04-13T03:02:58.766Z,6.10
2018-04-13T03:05:27.950Z,6.00
2018-04-13T03:07:57.922Z,6.00
2018-04-13T03:10:27.277Z,6.00
2018-04-13T03:12:55.751Z,6.00
2018-04-13T03:15:26.857Z,6.00
2018-04-13T03:17:55.310Z,6.00
2018-04-13T03:20:23.772Z,6.00
2018-04-13T03:22:52.205Z,6.00
2018-04-13T03:25:20.730Z,5.90
2018-04-13T03:27:50.080Z,5.80
2018-04-13T03:30:19.180Z,5.80
2018-04-13T03:32:47.645Z,5.80
2018-04-13T03:35:16.105Z,5.80
2018-04-13T03:37:45.407Z,5.80
2018-04-13T03:40:14.642Z,5.80
2018-04-13T03:42:43.833Z,5.80
2018-04-13T03:45:13.068Z,5.80
2018-04-13T03:47:41.518Z,5.80
2018-04-13T03:50:10.131Z,5.80
2018-04-13T03:52:40.129Z,5.80
2018-04-13T03:55:08.758Z,5.70
2018-04-13T03:57:37.349Z,5.70
2018-04-13T04:00:11.323Z,5.70
2018-04-13T04:02:39.941Z,5.70
2018-04-13T04:05:08.548Z,5.70
2018-04-13T04:07:37.891Z,5.70
2018-04-13T04:10:06.489Z,5.70
2018-04-13T04:12:34.977Z,5.70
2018-04-13T04:15:03.621Z,5.70
2018-04-13T04:17:32.229Z,5.70
2018-04-13T04:20:13.332Z,5.80
2018-04-13T04:22:56.185Z,5.80
2018-04-13T04:25:36.641Z,5.90
2018-04-13T04:28:05.072Z,5.90
2018-04-13T04:30:34.284Z,5.80
2018-04-13T04:33:02.701Z,5.80
2018-04-13T04:35:31.280Z,5.80
2018-04-13T04:37:59.899Z,5.90
2018-04-13T04:40:29.292Z,5.90
2018-04-13T04:42:59.406Z,5.90
2018-04-13T04:45:27.916Z,6.00
2018-04-13T04:47:56.337Z,6.00
2018-04-13T04:50:24.758Z,6.00
2018-04-13T04:52:53.397Z,6.00
2018-04-13T04:55:21.967Z,6.10
2018-04-13T04:57:51.316Z,6.10
2018-04-13T05:00:19.754Z,6.10
2018-04-13T05:02:49.124Z,6.10
2018-04-13T05:05:23.759Z,6.20
2018-04-13T05:07:53.250Z,6.10
2018-04-13T05:10:21.775Z,6.30
2018-04-13T05:12:50.931Z,6.40
2018-04-13T05:15:19.315Z,6.40
2018-04-13T05:17:47.796Z,6.60
2018-04-13T05:20:16.996Z,6.80
2018-04-13T05:22:46.239Z,6.90
2018-04-13T05:25:15.398Z,7.10
2018-04-13T05:27:43.958Z,7.00
2018-04-13T05:30:13.281Z,7.10
2018-04-13T05:32:41.682Z,7.20
2018-04-13T05:35:10.304Z,7.40
2018-04-13T05:37:38.739Z,7.70
2018-04-13T05:40:07.185Z,8.00
2018-04-13T05:42:35.607Z,8.10
2018-04-13T05:45:04.226Z,8.40
2018-04-13T05:47:32.615Z,8.70
2018-04-13T05:50:06.407Z,9.00
2018-04-13T05:52:35.309Z,9.30
2018-04-13T05:55:04.517Z,9.80
2018-04-13T05:57:33.083Z,9.80
2018-04-13T06:00:01.506Z,10.10
2018-04-13T06:02:30.683Z,10.70
2018-04-13T06:04:59.201Z,10.70
2018-04-13T06:07:28.441Z,11.40
2018-04-13T06:09:56.923Z,11.40
2018-04-13T06:12:25.683Z,11.60
2018-04-13T06:14:54.101Z,11.80
2018-04-13T06:17:22.707Z,11.80
2018-04-13T06:19:52.043Z,12.00
2018-04-13T06:22:20.652Z,11.90
2018-04-13T06:24:49.827Z,12.40
2018-04-13T06:27:18.301Z,12.40
2018-04-13T06:29:46.859Z,12.70
2018-04-13T06:32:16.103Z,12.90
2018-04-13T06:34:44.535Z,13.30
2018-04-13T06:37:13.916Z,13.90
2018-04-13T06:39:43.128Z,14.30
2018-04-13T06:42:11.619Z,14.30
2018-04-13T06:44:40.057Z,14.30
2018-04-13T06:47:08.592Z,14.60
2018-04-13T06:49:37.011Z,15.10
2018-04-13T06:52:05.446Z,15.10
2018-04-13T06:54:35.529Z,14.70
2018-04-13T06:57:09.204Z,14.70
2018-04-13T07:02:13.903Z,15.80
2018-04-13T07:04:42.497Z,16.10
2018-04-13T07:07:11.148Z,16.40
2018-04-13T07:09:39.565Z,16.40
2018-04-13T07:12:08.059Z,16.40
2018-04-13T07:14:36.574Z,16.70
2018-04-13T07:17:05.210Z,17.00
2018-04-13T07:19:33.779Z,17.00
2018-04-13T07:22:04.003Z,17.10
2018-04-13T07:24:33.356Z,17.00
2018-04-13T07:27:03.348Z,17.00
2018-04-13T07:29:37.365Z,17.20
2018-04-13T07:32:06.724Z,16.90
2018-04-13T07:34:35.521Z,16.90
2018-04-13T07:37:03.645Z,17.10
2018-04-13T07:39:32.207Z,17.40
2018-04-13T07:42:00.609Z,17.50
2018-04-13T07:44:29.043Z,17.70
2018-04-13T07:46:57.519Z,18.40
2018-04-13T07:49:26.076Z,18.50
2018-04-13T07:51:54.447Z,18.70
2018-04-13T07:54:22.864Z,18.50
2018-04-13T07:56:51.261Z,18.50
2018-04-13T07:59:19.847Z,18.30
2018-04-13T08:01:48.905Z,18.60
2018-04-13T08:04:16.776Z,18.70
2018-04-13T08:06:46.011Z,18.60
2018-04-13T08:09:14.477Z,18.60
2018-04-13T08:11:42.865Z,18.50
2018-04-13T08:14:11.455Z,18.50
2018-04-13T08:16:40.643Z,18.80
2018-04-13T08:19:09.151Z,18.80
2018-04-13T08:21:38.304Z,18.50
2018-04-13T08:24:06.804Z,18.50
2018-04-13T08:26:35.218Z,18.30
2018-04-13T08:29:03.831Z,18.30
2018-04-13T08:31:32.392Z,18.10
2018-04-13T08:34:08.476Z,17.90
2018-04-13T08:36:37.060Z,17.70
2018-04-13T08:39:06.311Z,17.40
2018-04-13T08:41:35.699Z,17.00
2018-04-13T08:44:04.272Z,17.00
2018-04-13T08:46:32.890Z,17.00
2018-04-13T08:49:01.386Z,17.00
2018-04-13T08:51:30.192Z,17.10
2018-04-13T08:53:58.626Z,17.30
2018-04-13T08:56:29.316Z,17.40
2018-04-13T08:58:58.484Z,17.70
2018-04-13T09:01:27.839Z,17.70
2018-04-13T09:03:56.327Z,17.70
2018-04-13T09:06:24.779Z,18.10
2018-04-13T09:08:53.169Z,18.90
2018-04-13T09:11:21.645Z,19.40
2018-04-13T09:13:50.352Z,19.40
2018-04-13T09:16:18.794Z,19.80
2018-04-13T09:18:52.690Z,20.00
2018-04-13T09:21:24.459Z,19.60
2018-04-13T09:23:52.934Z,19.50
2018-04-13T09:26:21.364Z,19.10
2018-04-13T09:28:49.900Z,19.00
2018-04-13T09:31:26.248Z,18.70
2018-04-13T09:33:54.815Z,18.60
2018-04-13T09:36:23.390Z,18.70
2018-04-13T09:38:51.814Z,18.90
2018-04-13T09:41:20.309Z,18.90
2018-04-13T09:43:51.265Z,18.80
2018-04-13T09:46:19.679Z,18.80
2018-04-13T09:48:48.135Z,19.00
2018-04-13T09:51:16.741Z,19.20
2018-04-13T09:53:45.210Z,19.20
2018-04-13T09:56:13.648Z,18.80
2018-04-13T09:58:42.204Z,18.70
2018-04-13T10:04:18.535Z,18.60
2018-04-13T10:06:47.725Z,18.20
2018-04-13T10:09:16.340Z,18.20
2018-04-13T10:11:44.953Z,18.00
2018-04-13T10:14:13.550Z,18.30
2018-04-13T10:16:42.185Z,18.10
2018-04-13T10:19:10.654Z,18.40
2018-04-13T10:21:39.126Z,18.60
2018-04-13T10:24:07.570Z,18.90
2018-04-13T10:26:36.071Z,19.00
2018-04-13T10:29:07.026Z,19.00
2018-04-13T10:31:36.378Z,18.60
2018-04-13T10:34:05.588Z,18.50
2018-04-13T10:36:34.000Z,18.50
2018-04-13T10:39:03.276Z,18.00
2018-04-13T10:41:31.706Z,18.00
2018-04-13T10:44:01.107Z,18.10
2018-04-13T10:46:30.259Z,18.50
2018-04-13T10:48:59.471Z,18.60
2018-04-13T10:51:33.363Z,18.60
2018-04-13T10:54:04.225Z,18.60
2018-04-13T10:56:33.253Z,18.50
2018-04-13T10:59:01.751Z,18.10
2018-04-13T11:01:35.068Z,18.10
2018-04-13T11:04:03.538Z,17.90
2018-04-13T11:06:31.991Z,17.80
2018-04-13T11:09:01.188Z,17.30
2018-04-13T11:11:30.475Z,17.30
2018-04-13T11:13:58.949Z,17.20
2018-04-13T11:16:27.428Z,17.30
2018-04-13T11:18:56.636Z,17.20
2018-04-13T11:21:25.131Z,17.20
2018-04-13T11:23:53.543Z,17.30
2018-04-13T11:26:27.432Z,17.10
2018-04-13T11:28:56.043Z,17.10
2018-04-13T11:31:24.618Z,17.20
2018-04-13T11:33:53.123Z,17.40
2018-04-13T11:36:21.510Z,17.60
2018-04-13T11:38:52.207Z,18.10
2018-04-13T11:41:20.775Z,18.10
2018-04-13T11:43:49.138Z,18.00
2018-04-13T11:46:19.255Z,17.90
2018-04-13T11:48:48.607Z,17.60
2018-04-13T11:51:17.030Z,17.60
2018-04-13T11:53:45.552Z,17.50
2018-04-13T11:56:14.056Z,17.30
2018-04-13T11:58:42.652Z,17.20
2018-04-13T12:01:14.240Z,17.00
2018-04-13T12:03:43.430Z,17.10
2018-04-13T12:06:11.847Z,17.10
2018-04-13T12:08:40.522Z,17.10
2018-04-13T12:11:09.692Z,17.30
2018-04-13T12:13:38.891Z,17.60
2018-04-13T12:16:07.330Z,17.60
2018-04-13T12:18:36.479Z,17.70
2018-04-13T12:21:04.901Z,17.70
2018-04-13T12:23:38.729Z,17.70
2018-04-13T12:26:07.752Z,17.60
2018-04-13T12:28:36.139Z,17.50
2018-04-13T12:31:04.562Z,17.30
2018-04-13T12:33:33.764Z,17.40
2018-04-13T12:36:02.217Z,17.40
2018-04-13T12:38:30.626Z,17.40
2018-04-13T12:40:59.024Z,17.30
2018-04-13T12:43:27.519Z,17.10
2018-04-13T12:45:56.695Z,16.90
2018-04-13T12:48:29.599Z,16.90
2018-04-13T12:50:58.037Z,16.90
2018-04-13T12:53:26.453Z,16.90
2018-04-13T12:55:54.898Z,16.90
2018-04-13T12:58:24.167Z,16.90
2018-04-13T13:00:52.628Z,16.90
2018-04-13T13:03:21.907Z,17.10
2018-04-13T13:05:50.451Z,17.10
2018-04-13T13:08:19.672Z,17.30
2018-04-13T13:10:53.470Z,17.30
2018-04-13T13:13:24.254Z,17.20
2018-04-13T13:15:52.680Z,17.00
2018-04-13T13:18:21.128Z,17.00
2018-04-13T13:20:50.373Z,17.20
2018-04-13T13:23:19.533Z,17.30
2018-04-13T13:25:48.002Z,17.30
2018-04-13T13:28:16.402Z,17.50
2018-04-13T13:30:44.829Z,17.50
2018-04-13T13:33:13.300Z,17.50
2018-04-13T13:35:46.302Z,17.60
2018-04-13T13:38:15.486Z,17.70
2018-04-13T13:40:43.931Z,17.70
2018-04-13T13:43:13.167Z,17.40
2018-04-13T13:45:41.676Z,17.40
2018-04-13T13:48:10.867Z,16.80
2018-04-13T13:50:39.306Z,16.80
2018-04-13T13:53:07.905Z,16.60
2018-04-13T13:55:36.351Z,16.40
2018-04-13T13:58:07.339Z,16.20
2018-04-13T14:00:35.793Z,16.10
2018-04-13T14:03:04.191Z,15.90
2018-04-13T14:05:32.748Z,15.90
2018-04-13T14:08:01.185Z,16.00
2018-04-13T14:10:30.428Z,16.00
2018-04-13T14:12:59.693Z,16.10
2018-04-13T14:15:28.127Z,16.00
2018-04-13T14:17:56.540Z,16.00
2018-04-13T14:20:26.296Z,16.00
2018-04-13T14:22:54.895Z,15.90
2018-04-13T14:25:24.057Z,15.90
2018-04-13T14:27:53.106Z,15.80
2018-04-13T14:30:21.765Z,15.80
2018-04-13T14:32:50.992Z,15.60
2018-04-13T14:35:19.614Z,15.50
2018-04-13T14:37:48.052Z,15.60
2018-04-13T14:40:17.248Z,15.50
2018-04-13T14:42:51.040Z,15.40
2018-04-13T14:45:29.117Z,15.50
2018-04-13T14:47:58.459Z,15.60
2018-04-13T14:50:26.906Z,15.60
2018-04-13T14:52:55.348Z,15.60
2018-04-13T14:55:24.653Z,15.50
2018-04-13T14:57:53.061Z,15.50
2018-04-13T15:00:22.357Z,15.20
2018-04-13T15:02:50.951Z,14.90
2018-04-13T15:05:19.448Z,14.70
2018-04-13T15:07:48.156Z,14.80
2018-04-13T15:10:16.822Z,14.90
2018-04-13T15:12:45.290Z,14.80
2018-04-13T15:15:13.922Z,14.70
2018-04-13T15:17:42.357Z,14.70
2018-04-13T15:20:11.739Z,14.60
2018-04-13T15:22:40.411Z,14.60
2018-04-13T15:25:08.998Z,14.60
2018-04-13T15:27:37.812Z,14.50
2018-04-13T15:30:06.254Z,14.50
2018-04-13T15:32:34.715Z,14.50
2018-04-13T15:35:03.242Z,14.40
2018-04-13T15:37:31.645Z,14.20
2018-04-13T15:40:00.340Z,14.10
2018-04-13T15:42:28.778Z,13.90
2018-04-13T15:44:58.029Z,13.80
2018-04-13T15:47:26.597Z,13.80
2018-04-13T15:50:01.156Z,13.80
2018-04-13T15:52:30.095Z,13.70
2018-04-13T15:54:58.508Z,13.70
2018-04-13T15:57:26.889Z,13.70
2018-04-13T15:59:55.349Z,13.70
2018-04-13T16:02:23.784Z,13.80
2018-04-13T16:04:52.229Z,13.90
2018-04-13T16:07:20.816Z,13.80
2018-04-13T16:09:49.298Z,13.80
2018-04-13T16:12:18.606Z,13.70
2018-04-13T16:14:53.272Z,13.70
2018-04-13T16:17:24.244Z,13.60
2018-04-13T16:19:52.799Z,13.70
2018-04-13T16:22:21.312Z,13.80
2018-04-13T16:24:49.752Z,13.80
2018-04-13T16:27:19.059Z,13.70
2018-04-13T16:29:48.280Z,13.70
2018-04-13T16:32:16.827Z,13.70
2018-04-13T16:34:45.283Z,13.70
2018-04-13T16:37:13.768Z,13.60
2018-04-13T16:39:47.532Z,13.50
2018-04-13T16:42:17.339Z,13.20
2018-04-13T16:44:45.800Z,13.20
2018-04-13T16:47:14.938Z,13.20
2018-04-13T16:49:43.488Z,13.10
2018-04-13T16:52:12.329Z,13.30
2018-04-13T16:54:40.849Z,13.30
2018-04-13T16:57:10.023Z,13.20
2018-04-13T16:59:38.590Z,13.20
2018-04-13T17:02:07.026Z,13.00
2018-04-13T17:04:36.812Z,13.00
2018-04-13T17:07:06.084Z,12.80
2018-04-13T17:09:34.671Z,12.80
2018-04-13T17:12:03.114Z,12.80
2018-04-13T17:14:32.462Z,12.80
2018-04-13T17:17:01.726Z,12.70
2018-04-13T17:19:30.899Z,12.60
2018-04-13T17:21:59.543Z,12.60
2018-04-13T17:24:27.994Z,12.60
2018-04-13T17:27:01.967Z,12.60
2018-04-13T17:29:30.527Z,12.60
2018-04-13T17:31:58.960Z,12.50
2018-04-13T17:34:27.566Z,12.40
2018-04-13T17:36:56.780Z,12.40
2018-04-13T17:39:25.277Z,12.40
2018-04-13T17:41:53.708Z,12.40
2018-04-13T17:44:22.109Z,12.30
2018-04-13T17:46:50.524Z,12.10
2018-04-13T17:49:19.105Z,11.90
2018-04-13T17:51:47.691Z,11.90
2018-04-13T17:54:16.905Z,11.80
2018-04-13T17:56:46.061Z,11.70
2018-04-13T17:59:16.241Z,11.70
2018-04-13T18:01:44.675Z,11.70
2018-04-13T18:04:13.184Z,11.70
2018-04-13T18:06:41.753Z,11.70
2018-04-13T18:09:10.144Z,11.70
2018-04-13T18:11:38.555Z,11.60
2018-04-13T18:14:12.337Z,11.50
2018-04-13T18:16:40.791Z,11.50
2018-04-13T18:19:09.382Z,11.50
2018-04-13T18:21:40.070Z,11.60
2018-04-13T18:24:08.490Z,11.50
2018-04-13T18:26:36.913Z,11.50
2018-04-13T18:29:06.245Z,11.40
2018-04-13T18:31:35.623Z,11.30
2018-04-13T18:34:04.811Z,11.30
2018-04-13T18:36:38.675Z,11.30
2018-04-13T18:39:07.109Z,11.30
2018-04-13T18:41:35.690Z,11.30
2018-04-13T18:44:04.158Z,11.10
2018-04-13T18:46:32.563Z,11.10
2018-04-13T18:49:01.049Z,11.10
2018-04-13T18:51:29.456Z,11.10
2018-04-13T18:53:58.676Z,11.00
2018-04-13T18:56:27.128Z,11.00
2018-04-13T18:59:01.268Z,11.10
2018-04-13T19:01:30.473Z,10.90
2018-04-13T19:03:58.979Z,10.90
2018-04-13T19:06:27.378Z,10.90
2018-04-13T19:08:56.556Z,10.90
2018-04-13T19:11:25.286Z,10.80
2018-04-13T19:13:54.581Z,10.80
2018-04-13T19:16:23.075Z,10.70
2018-04-13T19:18:51.511Z,10.70
2018-04-13T19:21:19.932Z,10.70
2018-04-13T19:23:48.418Z,10.70
2018-04-13T19:26:17.053Z,10.60
2018-04-13T19:28:45.749Z,10.60
2018-04-13T19:31:14.172Z,10.60
2018-04-13T19:33:44.216Z,10.70
2018-04-13T19:36:12.692Z,10.60
2018-04-13T19:38:41.194Z,10.60
2018-04-13T19:41:09.571Z,10.60
2018-04-13T19:43:43.306Z,10.70
2018-04-13T19:46:15.772Z,10.60
2018-04-13T19:48:44.224Z,10.70
2018-04-13T19:51:13.093Z,10.70
2018-04-13T19:53:41.529Z,10.60
2018-04-13T19:56:10.279Z,10.60
2018-04-13T19:58:39.506Z,10.50
2018-04-13T20:01:08.790Z,10.50
2018-04-13T20:03:39.149Z,10.50
2018-04-13T20:06:07.559Z,10.50
2018-04-13T20:08:42.283Z,10.40
2018-04-13T20:11:14.191Z,10.40
2018-04-13T20:13:43.414Z,10.30
2018-04-13T20:16:11.896Z,10.30
2018-04-13T20:18:41.123Z,10.30
2018-04-13T20:21:09.594Z,10.30
2018-04-13T20:23:38.945Z,10.30
2018-04-13T20:26:07.591Z,10.30
2018-04-13T20:28:35.999Z,10.40
2018-04-13T20:31:05.353Z,10.30
2018-04-13T20:33:36.293Z,10.30
2018-04-13T20:36:04.880Z,10.30
2018-04-13T20:38:34.046Z,10.30
2018-04-13T20:41:03.259Z,10.20
2018-04-13T20:43:31.846Z,10.20
2018-04-13T20:46:01.052Z,10.20
2018-04-13T20:48:29.440Z,10.10
2018-04-13T20:50:57.899Z,10.10
2018-04-13T20:53:26.318Z,10.10
2018-04-13T20:56:00.288Z,10.20
2018-04-13T20:58:34.097Z,10.10
2018-04-13T21:01:02.586Z,10.20
2018-04-13T21:03:31.175Z,10.10
2018-04-13T21:05:59.607Z,10.10
2018-04-13T21:08:28.041Z,10.00
2018-04-13T21:10:56.475Z,10.10
2018-04-13T21:13:25.959Z,10.00
2018-04-13T21:15:54.511Z,9.90
2018-04-13T21:18:22.974Z,10.00
2018-04-13T21:20:57.432Z,10.00
2018-04-13T21:23:25.852Z,10.00
2018-04-13T21:25:54.421Z,9.90
2018-04-13T21:28:22.843Z,9.90
2018-04-13T21:30:52.047Z,9.90
2018-04-13T21:33:21.211Z,9.90
2018-04-13T21:35:49.786Z,9.90
2018-04-13T21:38:18.189Z,9.90
2018-04-13T21:40:46.805Z,9.80
2018-04-13T21:43:15.190Z,9.80
2018-04-13T21:45:43.747Z,9.70
2018-04-13T21:48:12.998Z,9.70
2018-04-13T21:50:41.458Z,9.60
2018-04-13T21:53:09.848Z,9.60
2018-04-13T21:55:38.324Z,9.70
2018-04-13T21:58:07.352Z,9.70
2018-04-13T22:00:35.944Z,9.80
2018-04-13T22:03:04.353Z,9.70
2018-04-13T22:05:32.738Z,9.70
2018-04-13T22:08:02.001Z,9.50
2018-04-13T22:13:43.971Z,9.60
2018-04-13T22:16:12.394Z,9.60
2018-04-13T22:18:40.827Z,9.50
2018-04-13T22:21:09.208Z,9.50
2018-04-13T22:23:37.808Z,9.50
2018-04-13T22:26:08.870Z,9.50
2018-04-13T22:28:38.190Z,9.50
2018-04-13T22:31:06.619Z,9.50
2018-04-13T22:33:35.211Z,9.40
2018-04-13T22:38:37.960Z,9.40
2018-04-13T22:41:06.400Z,9.40
2018-04-13T22:43:34.965Z,9.50
2018-04-13T22:46:04.344Z,9.50
2018-04-13T22:48:32.815Z,9.50
2018-04-13T22:51:01.993Z,9.40
2018-04-13T22:53:30.403Z,9.40
2018-04-13T22:55:58.834Z,9.40
2018-04-13T22:58:27.248Z,9.40
2018-04-13T23:00:55.672Z,9.40
2018-04-13T23:03:24.118Z,9.50
2018-04-13T23:05:53.441Z,9.30
2018-04-13T23:08:21.959Z,9.30
2018-04-13T23:10:51.133Z,9.40
2018-04-13T23:13:21.158Z,9.30
2018-04-13T23:15:49.605Z,9.20
2018-04-13T23:18:18.829Z,9.20
2018-04-13T23:20:52.012Z,9.10
2018-04-13T23:23:20.424Z,9.10
2018-04-13T23:25:48.880Z,9.10
2018-04-13T23:28:18.219Z,9.10
2018-04-13T23:30:46.831Z,9.10
2018-04-13T23:33:15.209Z,9.00
2018-04-13T23:35:44.133Z,9.10
2018-04-13T23:38:12.535Z,9.10
2018-04-13T23:40:40.940Z,9.10
2018-04-13T23:43:09.451Z,9.00
2018-04-13T23:45:37.847Z,9.00
2018-04-13T23:48:11.633Z,9.00
2018-04-13T23:50:42.516Z,9.00
2018-04-13T23:53:10.918Z,9.00
2018-04-13T23:55:39.549Z,9.00
2018-04-13T23:58:08.111Z,9.00
